PTT weather

La Pista Airport
Teapa, Tabasco, Mexico

Public forecast

Using degrees Celsius for public forecast. Weather courtesy of forecast.io.

Closest aviation weather report (METAR) to La Pista Airport

Closest report is Carlos Rovirosa Pérez International Airport, 25.8 nm (47.8 km) NNE. Retrieved 2019/12/12 20:48 UTC (21 minutes ago):

MMVA 122048Z 24005KT 3SM HZ OVC010 25/25 A3003 RMK SLP170 57034 900 8/7// VRBL CONDS

Closest aviation forecast (TAF) to La Pista Airport

Closest forecast is Carlos Rovirosa Pérez International Airport, 25.8 nm (47.8 km) NNE. Retrieved 2019/12/12 18:57 UTC (2 hours ago):

TAF MMVA 121650Z 1218/1318 25010KT 3SM HZ BKN010 OVC030 FM122200 26010KT 4SM HZ OVC020 PROB40 1306/1310 2SM -RA FM131200 00000KT 1SM BR OVC003 FM131600 23010KT 3SM BR OVC015